Time,TemperatureF,DewpointF,PressureIn,WindDirection,WindDirectionDegrees,WindSpeedMPH,WindSpeedGustMPH,Humidity,HourlyPrecipIn,Conditions,Clouds,dailyrainin,SoftwareType,DateUTC
2013-04-18 00:05:00,37.7,26.2,30.04,NNW,347,1.0,3.0,63,0.00,,,0.00,Wunderground v.1.15,2013-04-18 04:05:00,
2013-04-18 00:11:00,37.0,25.9,30.05,NNW,347,1.0,3.0,64,0.00,,,0.00,Wunderground v.1.15,2013-04-18 04:11:00,
2013-04-18 00:15:00,36.6,25.9,30.05,NNW,347,1.0,1.0,65,0.00,,,0.00,Wunderground v.1.15,2013-04-18 04:15:00,
2013-04-18 00:30:00,36.1,25.8,30.06,NNW,347,1.0,1.0,66,0.00,,,0.00,Wunderground v.1.15,2013-04-18 04:30:00,
2013-04-18 00:35:00,35.9,26.0,30.06,NNW,347,0.0,1.0,67,0.00,,,0.00,Wunderground v.1.15,2013-04-18 04:35:00,
2013-04-18 00:40:00,35.7,25.8,30.06,NNW,347,0.0,0.0,67,0.00,,,0.00,Wunderground v.1.15,2013-04-18 04:40:00,
2013-04-18 00:45:00,35.4,25.9,30.06,NNW,347,0.0,0.0,68,0.00,,,0.00,Wunderground v.1.15,2013-04-18 04:45:00,
2013-04-18 00:55:00,35.0,25.9,30.05,NNW,347,0.0,0.0,69,0.00,,,0.00,Wunderground v.1.15,2013-04-18 04:55:00,
2013-04-18 01:00:00,34.7,25.9,30.05,NNW,347,0.0,0.0,70,0.00,,,0.00,Wunderground v.1.15,2013-04-18 05:00:00,
2013-04-18 01:05:00,34.2,25.8,30.05,NNW,347,1.0,1.0,71,0.00,,,0.00,Wunderground v.1.15,2013-04-18 05:05:00,
2013-04-18 01:15:00,34.3,24.8,30.04,NNW,347,0.0,0.0,68,0.00,,,0.00,Wunderground v.1.15,2013-04-18 05:15:00,
2013-04-18 01:20:00,34.3,25.2,30.04,NNW,347,0.0,2.0,69,0.00,,,0.00,Wunderground v.1.15,2013-04-18 05:20:00,
2013-04-18 01:25:00,34.2,24.4,30.05,NNW,347,1.0,3.0,67,0.00,,,0.00,Wunderground v.1.15,2013-04-18 05:25:00,
2013-04-18 01:35:00,35.2,24.6,30.05,NNW,347,2.0,2.0,65,0.00,,,0.00,Wunderground v.1.15,2013-04-18 05:35:00,
2013-04-18 01:55:00,32.7,23.3,30.04,NNW,348,3.0,3.0,68,0.00,,,0.00,Wunderground v.1.15,2013-04-18 05:55:00,
2013-04-18 02:00:00,32.4,24.0,30.04,NNW,348,3.0,3.0,71,0.00,,,0.00,Wunderground v.1.15,2013-04-18 06:00:00,
2013-04-18 02:05:00,32.4,24.0,30.05,NNW,348,2.0,3.0,71,0.00,,,0.00,Wunderground v.1.15,2013-04-18 06:05:00,
2013-04-18 02:20:00,33.3,22.4,30.05,NNW,348,0.0,0.0,64,0.00,,,0.00,Wunderground v.1.15,2013-04-18 06:20:00,
2013-04-18 02:25:00,33.6,22.7,30.05,NNW,348,0.0,0.0,64,0.00,,,0.00,Wunderground v.1.15,2013-04-18 06:25:00,
2013-04-18 02:40:00,33.6,22.3,30.04,NNW,348,1.0,1.0,63,0.00,,,0.00,Wunderground v.1.15,2013-04-18 06:40:00,
2013-04-18 02:45:00,33.4,22.5,30.04,NNW,348,1.0,1.0,64,0.00,,,0.00,Wunderground v.1.15,2013-04-18 06:45:00,
2013-04-18 02:55:00,32.9,22.4,30.05,NNW,348,0.0,1.0,65,0.00,,,0.00,Wunderground v.1.15,2013-04-18 06:55:00,
2013-04-18 03:10:00,32.2,22.8,30.05,NNW,348,1.0,1.0,68,0.00,,,0.00,Wunderground v.1.15,2013-04-18 07:10:00,
2013-04-18 03:15:00,32.0,21.9,30.06,NNW,348,1.0,1.0,66,0.00,,,0.00,Wunderground v.1.15,2013-04-18 07:15:00,
2013-04-18 03:30:00,32.3,22.9,30.07,NNW,348,1.0,1.0,68,0.00,,,0.00,Wunderground v.1.15,2013-04-18 07:30:00,
2013-04-18 03:40:00,32.1,23.1,30.07,NNW,348,1.0,2.0,69,0.00,,,0.00,Wunderground v.1.15,2013-04-18 07:40:00,
2013-04-18 03:45:00,31.5,23.5,30.07,NNW,348,2.0,2.0,72,0.00,,,0.00,Wunderground v.1.15,2013-04-18 07:45:00,
2013-04-18 04:00:00,31.2,23.2,30.07,NNW,348,1.0,1.0,72,0.00,,,0.00,Wunderground v.1.15,2013-04-18 08:00:00,
2013-04-18 04:05:00,31.1,23.5,30.08,NNW,348,1.0,1.0,73,0.00,,,0.00,Wunderground v.1.15,2013-04-18 08:05:00,
2013-04-18 04:20:00,31.1,24.4,30.08,NNW,348,1.0,3.0,76,0.00,,,0.00,Wunderground v.1.15,2013-04-18 08:20:00,
2013-04-18 04:30:00,31.1,24.4,30.08,NNW,348,0.0,0.0,76,0.00,,,0.00,Wunderground v.1.15,2013-04-18 08:30:00,
2013-04-18 04:35:00,31.1,24.1,30.09,NNW,348,0.0,0.0,75,0.00,,,0.00,Wunderground v.1.15,2013-04-18 08:35:00,
2013-04-18 04:45:00,31.1,24.1,30.09,NNW,348,0.0,0.0,75,0.00,,,0.00,Wunderground v.1.15,2013-04-18 08:45:00,
2013-04-18 05:00:00,31.6,22.6,30.08,NNW,348,0.0,0.0,69,0.00,,,0.00,Wunderground v.1.15,2013-04-18 09:00:00,
2013-04-18 05:06:00,31.9,23.2,30.08,NNW,348,0.0,0.0,70,0.00,,,0.00,Wunderground v.1.15,2013-04-18 09:06:00,
2013-04-18 05:20:00,32.2,23.8,30.07,NNW,348,0.0,0.0,71,0.00,,,0.00,Wunderground v.1.15,2013-04-18 09:20:00,
2013-04-18 05:25:00,31.6,23.9,30.07,NNW,348,1.0,2.0,73,0.00,,,0.00,Wunderground v.1.15,2013-04-18 09:25:00,
2013-04-18 05:30:00,31.0,24.0,30.07,NNW,348,2.0,2.0,75,0.00,,,0.00,Wunderground v.1.15,2013-04-18 09:30:00,
2013-04-18 05:40:00,30.9,23.6,30.07,NNW,348,1.0,1.0,74,0.00,,,0.00,Wunderground v.1.15,2013-04-18 09:40:00,
2013-04-18 05:45:00,30.7,24.0,30.07,NNW,348,0.0,1.0,76,0.00,,,0.00,Wunderground v.1.15,2013-04-18 09:45:00,
2013-04-18 05:51:00,30.3,24.0,30.07,NNW,348,1.0,1.0,77,0.00,,,0.00,Wunderground v.1.15,2013-04-18 09:51:00,
2013-04-18 06:05:00,30.7,23.7,30.08,NNW,348,0.0,1.0,75,0.00,,,0.00,Wunderground v.1.15,2013-04-18 10:05:00,
2013-04-18 06:15:00,31.0,23.7,30.09,NNW,348,1.0,2.0,74,0.00,,,0.00,Wunderground v.1.15,2013-04-18 10:15:00,
2013-04-18 06:20:00,30.8,24.4,30.09,NNW,348,1.0,2.0,77,0.00,,,0.00,Wunderground v.1.15,2013-04-18 10:20:00,
2013-04-18 06:30:00,31.1,25.0,30.09,NNW,348,1.0,2.0,78,0.00,,,0.00,Wunderground v.1.15,2013-04-18 10:30:00,
2013-04-18 06:35:00,31.1,26.0,30.09,NNW,348,2.0,2.0,81,0.00,,,0.00,Wunderground v.1.15,2013-04-18 10:35:00,
2013-04-18 06:50:00,31.1,25.3,30.09,SW,224,2.0,2.0,79,0.00,,,0.00,Wunderground v.1.15,2013-04-18 10:50:00,
2013-04-18 06:55:00,31.4,25.9,30.08,SW,230,2.0,2.0,80,0.00,,,0.00,Wunderground v.1.15,2013-04-18 10:55:00,
2013-04-18 07:10:00,31.7,26.5,30.09,North,355,0.0,0.0,81,0.00,,,0.00,Wunderground v.1.15,2013-04-18 11:10:00,
2013-04-18 07:15:00,31.9,27.0,30.09,North,355,0.0,1.0,82,0.00,,,0.00,Wunderground v.1.15,2013-04-18 11:15:00,
2013-04-18 07:21:00,32.0,25.9,30.10,North,350,1.0,2.0,78,0.00,,,0.00,Wunderground v.1.15,2013-04-18 11:21:00,
2013-04-18 07:36:00,32.9,26.2,30.09,West,265,0.0,0.0,76,0.00,,,0.00,Wunderground v.1.15,2013-04-18 11:36:00,
2013-04-18 07:46:00,33.5,28.3,30.09,West,265,0.0,0.0,81,0.00,,,0.00,Wunderground v.1.15,2013-04-18 11:46:00,
2013-04-18 07:55:00,33.5,28.0,30.08,NNE,23,0.0,0.0,80,0.00,,,0.00,Wunderground v.1.15,2013-04-18 11:55:00,
2013-04-18 08:01:00,33.7,27.3,30.09,NE,51,0.0,4.0,77,0.00,,,0.00,Wunderground v.1.15,2013-04-18 12:01:00,
2013-04-18 08:10:00,34.1,28.0,30.08,NNE,32,0.0,4.0,78,0.00,,,0.00,Wunderground v.1.15,2013-04-18 12:10:00,
2013-04-18 08:15:00,34.1,27.6,30.08,NNE,28,1.0,1.0,77,0.00,,,0.00,Wunderground v.1.15,2013-04-18 12:15:00,
2013-04-18 08:25:00,34.9,28.1,30.08,NNE,28,0.0,0.0,76,0.00,,,0.00,Wunderground v.1.15,2013-04-18 12:25:00,
2013-04-18 08:31:00,35.5,28.4,30.08,NNE,28,0.0,0.0,75,0.00,,,0.00,Wunderground v.1.15,2013-04-18 12:31:00,
2013-04-18 08:36:00,36.2,28.0,30.08,NNE,28,0.0,0.0,72,0.00,,,0.00,Wunderground v.1.15,2013-04-18 12:36:00,
2013-04-18 08:50:00,38.0,29.4,30.07,ENE,62,0.0,2.0,71,0.00,,,0.00,Wunderground v.1.15,2013-04-18 12:50:00,
2013-04-18 08:55:00,38.4,28.4,30.07,ENE,67,0.0,2.0,67,0.00,,,0.00,Wunderground v.1.15,2013-04-18 12:55:00,
2013-04-18 09:00:00,38.8,27.3,30.07,ENE,69,0.0,0.0,63,0.00,,,0.00,Wunderground v.1.15,2013-04-18 13:00:00,
2013-04-18 09:15:00,39.6,26.4,30.06,SSW,192,2.0,3.0,59,0.00,,,0.00,Wunderground v.1.15,2013-04-18 13:15:00,
2013-04-18 09:20:00,39.8,27.4,30.06,South,175,3.0,3.0,61,0.00,,,0.00,Wunderground v.1.15,2013-04-18 13:20:00,
2013-04-18 09:26:00,40.0,26.8,30.05,SSE,161,3.0,3.0,59,0.00,,,0.00,Wunderground v.1.15,2013-04-18 13:26:00,
2013-04-18 09:40:00,40.4,26.8,30.04,South,188,3.0,4.0,58,0.00,,,0.00,Wunderground v.1.15,2013-04-18 13:40:00,
2013-04-18 09:45:00,40.5,27.3,30.04,SSE,165,3.0,4.0,59,0.00,,,0.00,Wunderground v.1.15,2013-04-18 13:45:00,
2013-04-18 10:00:00,41.3,27.2,30.04,SSE,163,3.0,3.0,57,0.00,,,0.00,Wunderground v.1.15,2013-04-18 14:00:00,
2013-04-18 10:15:00,42.6,27.1,30.03,ESE,102,3.0,4.0,54,0.00,,,0.00,Wunderground v.1.15,2013-04-18 14:15:00,
2013-04-18 10:20:00,42.9,27.4,30.04,South,191,6.0,9.0,54,0.00,,,0.00,Wunderground v.1.15,2013-04-18 14:20:00,
2013-04-18 10:25:00,43.1,27.1,30.03,South,173,5.0,5.0,53,0.00,,,0.00,Wunderground v.1.15,2013-04-18 14:25:00,
2013-04-18 10:35:00,43.5,28.4,30.03,SSW,211,4.0,8.0,55,0.00,,,0.00,Wunderground v.1.15,2013-04-18 14:35:00,
2013-04-18 10:46:00,45.0,27.5,30.03,SE,135,7.0,7.0,50,0.00,,,0.00,Wunderground v.1.15,2013-04-18 14:46:00,
2013-04-18 10:55:00,45.5,26.4,30.03,SSW,208,10.0,13.0,47,0.00,,,0.00,Wunderground v.1.15,2013-04-18 14:55:00,
2013-04-18 11:05:00,46.0,27.9,30.02,SSW,201,8.0,8.0,49,0.00,,,0.00,Wunderground v.1.15,2013-04-18 15:05:00,
2013-04-18 11:20:00,46.0,26.4,30.02,South,170,12.0,12.0,46,0.00,,,0.00,Wunderground v.1.15,2013-04-18 15:20:00,
2013-04-18 11:25:00,45.8,26.2,30.02,South,189,10.0,12.0,46,0.00,,,0.00,Wunderground v.1.15,2013-04-18 15:25:00,
2013-04-18 11:30:00,45.8,27.7,30.01,SSE,154,8.0,8.0,49,0.00,,,0.00,Wunderground v.1.15,2013-04-18 15:30:00,
2013-04-18 11:45:00,45.5,26.4,30.02,SSE,168,9.0,9.0,47,0.00,,,0.00,Wunderground v.1.15,2013-04-18 15:45:00,
2013-04-18 11:55:00,45.4,27.3,30.02,SSE,155,6.0,6.0,49,0.00,,,0.00,Wunderground v.1.15,2013-04-18 15:55:00,
2013-04-18 12:00:00,45.5,28.4,30.01,South,184,4.0,4.0,51,0.00,,,0.00,Wunderground v.1.15,2013-04-18 16:00:00,
2013-04-18 12:05:00,45.4,27.8,30.00,SSE,160,4.0,7.0,50,0.00,,,0.00,Wunderground v.1.15,2013-04-18 16:05:00,
2013-04-18 12:15:00,44.9,30.1,29.99,South,182,6.0,10.0,56,0.00,,,0.00,Wunderground v.1.15,2013-04-18 16:15:00,
2013-04-18 12:26:00,44.3,30.9,29.99,South,181,7.0,13.0,59,0.00,,,0.00,Wunderground v.1.15,2013-04-18 16:26:00,
2013-04-18 12:35:00,43.8,31.6,29.98,South,172,5.0,13.0,62,0.00,,,0.01,Wunderground v.1.15,2013-04-18 16:35:00,
2013-04-18 12:50:00,43.3,31.1,29.98,South,191,6.0,11.0,62,0.00,,,0.01,Wunderground v.1.15,2013-04-18 16:50:00,
2013-04-18 12:56:00,43.0,32.4,29.97,South,188,6.0,6.0,66,0.00,,,0.01,Wunderground v.1.15,2013-04-18 16:56:00,
2013-04-18 13:05:00,43.1,31.0,29.96,South,176,4.0,6.0,62,0.00,,,0.01,Wunderground v.1.15,2013-04-18 17:05:00,
2013-04-18 13:15:00,43.7,30.3,29.96,South,170,6.0,17.0,59,0.00,,,0.01,Wunderground v.1.15,2013-04-18 17:15:00,
2013-04-18 13:30:00,43.7,32.3,29.96,South,176,7.0,7.0,64,0.00,,,0.01,Wunderground v.1.15,2013-04-18 17:30:00,
2013-04-18 13:35:00,43.2,33.3,29.95,SSE,167,5.0,7.0,68,0.00,,,0.01,Wunderground v.1.15,2013-04-18 17:35:00,
2013-04-18 13:45:00,43.0,34.2,29.94,South,172,4.0,5.0,71,0.00,,,0.01,Wunderground v.1.15,2013-04-18 17:45:00,
2013-04-18 13:51:00,43.4,34.3,29.94,SE,138,3.0,3.0,70,0.00,,,0.01,Wunderground v.1.15,2013-04-18 17:51:00,
2013-04-18 14:00:00,44.2,33.6,29.93,SSW,212,3.0,7.0,66,0.00,,,0.01,Wunderground v.1.15,2013-04-18 18:00:00,
2013-04-18 14:20:00,46.7,34.4,29.92,South,186,6.0,12.0,62,0.00,,,0.01,Wunderground v.1.15,2013-04-18 18:20:00,
2013-04-18 14:25:00,47.6,34.4,29.91,SE,145,7.0,12.0,60,0.00,,,0.01,Wunderground v.1.15,2013-04-18 18:25:00,
2013-04-18 14:30:00,48.4,34.7,29.91,South,183,6.0,6.0,59,0.00,,,0.01,Wunderground v.1.15,2013-04-18 18:30:00,
2013-04-18 14:40:00,49.1,33.6,29.90,SE,139,7.0,7.0,55,0.00,,,0.02,Wunderground v.1.15,2013-04-18 18:40:00,
2013-04-18 14:45:00,49.3,33.8,29.90,SE,141,8.0,8.0,55,0.00,,,0.02,Wunderground v.1.15,2013-04-18 18:45:00,
2013-04-18 14:55:00,50.0,34.9,29.89,South,182,6.0,8.0,56,0.00,,,0.02,Wunderground v.1.15,2013-04-18 18:55:00,
2013-04-18 15:00:00,50.2,34.6,29.89,South,171,5.0,5.0,55,0.00,,,0.02,Wunderground v.1.15,2013-04-18 19:00:00,
2013-04-18 15:05:00,50.8,34.7,29.88,South,176,6.0,13.0,54,0.00,,,0.02,Wunderground v.1.15,2013-04-18 19:05:00,
2013-04-18 15:10:00,51.4,34.8,29.88,South,181,7.0,7.0,53,0.00,,,0.02,Wunderground v.1.15,2013-04-18 19:10:00,
2013-04-18 15:25:00,52.3,33.7,29.87,South,181,9.0,12.0,49,0.00,,,0.02,Wunderground v.1.15,2013-04-18 19:25:00,
2013-04-18 15:31:00,53.0,34.8,29.86,South,187,10.0,12.0,50,0.00,,,0.02,Wunderground v.1.15,2013-04-18 19:31:00,
2013-04-18 15:45:00,54.6,33.1,29.85,South,186,14.0,17.0,44,0.00,,,0.02,Wunderground v.1.15,2013-04-18 19:45:00,
2013-04-18 15:55:00,54.0,32.6,29.83,SSE,151,15.0,15.0,44,0.00,,,0.02,Wunderground v.1.15,2013-04-18 19:55:00,
2013-04-18 16:00:00,54.2,33.3,29.83,South,186,13.0,13.0,45,0.00,,,0.02,Wunderground v.1.15,2013-04-18 20:00:00,
2013-04-18 16:06:00,54.9,33.4,29.82,SSW,195,12.0,13.0,44,0.00,,,0.02,Wunderground v.1.15,2013-04-18 20:06:00,
2013-04-18 16:16:00,55.1,33.6,29.81,South,173,11.0,17.0,44,0.00,,,0.02,Wunderground v.1.15,2013-04-18 20:16:00,
2013-04-18 16:25:00,54.9,33.4,29.81,SSW,207,12.0,23.0,44,0.00,,,0.02,Wunderground v.1.15,2013-04-18 20:25:00,
2013-04-18 16:30:00,54.6,32.5,29.81,SSW,193,13.0,15.0,43,0.00,,,0.02,Wunderground v.1.15,2013-04-18 20:30:00,
2013-04-18 16:35:00,54.4,32.9,29.81,SSW,192,14.0,15.0,44,0.00,,,0.02,Wunderground v.1.15,2013-04-18 20:35:00,
2013-04-18 16:45:00,54.3,32.8,29.80,SSE,163,11.0,12.0,44,0.00,,,0.02,Wunderground v.1.15,2013-04-18 20:45:00,
2013-04-18 16:51:00,54.2,33.3,29.80,South,177,11.0,16.0,45,0.00,,,0.02,Wunderground v.1.15,2013-04-18 20:51:00,
2013-04-18 16:56:00,54.2,33.9,29.80,SSE,165,10.0,16.0,46,0.00,,,0.02,Wunderground v.1.15,2013-04-18 20:56:00,
2013-04-18 17:05:00,54.5,33.6,29.80,South,183,13.0,18.0,45,0.00,,,0.02,Wunderground v.1.15,2013-04-18 21:05:00,
2013-04-18 17:10:00,54.6,33.7,29.80,SSE,165,13.0,18.0,45,0.00,,,0.02,Wunderground v.1.15,2013-04-18 21:10:00,
2013-04-18 17:15:00,54.4,33.5,29.80,SSE,164,11.0,11.0,45,0.00,,,0.02,Wunderground v.1.15,2013-04-18 21:15:00,
2013-04-18 17:20:00,54.1,33.2,29.79,SSE,160,11.0,16.0,45,0.00,,,0.02,Wunderground v.1.15,2013-04-18 21:20:00,
2013-04-18 17:30:00,54.2,33.3,29.79,South,170,13.0,14.0,45,0.00,,,0.02,Wunderground v.1.15,2013-04-18 21:30:00,
2013-04-18 17:41:00,54.1,33.8,29.77,SSW,192,13.0,14.0,46,0.00,,,0.02,Wunderground v.1.15,2013-04-18 21:41:00,
2013-04-18 17:50:00,54.0,33.1,29.78,South,188,13.0,17.0,45,0.00,,,0.02,Wunderground v.1.15,2013-04-18 21:50:00,
2013-04-18 17:55:00,53.8,34.0,29.78,SSE,156,11.0,11.0,47,0.00,,,0.02,Wunderground v.1.15,2013-04-18 21:55:00,
2013-04-18 18:00:00,53.7,33.9,29.77,SSW,207,10.0,10.0,47,0.00,,,0.02,Wunderground v.1.15,2013-04-18 22:00:00,
2013-04-18 18:10:00,53.7,35.0,29.76,SSW,197,9.0,13.0,49,0.00,,,0.02,Wunderground v.1.15,2013-04-18 22:10:00,
2013-04-18 18:15:00,53.6,33.8,29.76,SSE,159,10.0,13.0,47,0.00,,,0.02,Wunderground v.1.15,2013-04-18 22:15:00,
2013-04-18 18:25:00,53.4,34.7,29.76,SSE,167,6.0,6.0,49,0.00,,,0.02,Wunderground v.1.15,2013-04-18 22:25:00,
2013-04-18 18:35:00,53.3,35.1,29.76,SSW,196,6.0,6.0,50,0.00,,,0.02,Wunderground v.1.15,2013-04-18 22:35:00,
2013-04-18 18:41:00,53.5,34.8,29.76,SW,235,8.0,17.0,49,0.00,,,0.02,Wunderground v.1.15,2013-04-18 22:41:00,
2013-04-18 18:55:00,53.3,35.1,29.76,SSE,152,11.0,11.0,50,0.00,,,0.02,Wunderground v.1.15,2013-04-18 22:55:00,
2013-04-18 19:06:00,53.0,35.3,29.77,South,182,9.0,13.0,51,0.00,,,0.02,Wunderground v.1.15,2013-04-18 23:06:00,
2013-04-18 19:16:00,52.7,35.1,29.76,South,184,8.0,11.0,51,0.00,,,0.02,Wunderground v.1.15,2013-04-18 23:16:00,
2013-04-18 19:30:00,52.7,35.1,29.76,South,190,12.0,12.0,51,0.00,,,0.02,Wunderground v.1.15,2013-04-18 23:30:00,
2013-04-18 19:35:00,52.5,34.9,29.75,South,169,10.0,12.0,51,0.00,,,0.02,Wunderground v.1.15,2013-04-18 23:35:00,
2013-04-18 19:45:00,52.6,35.0,29.75,SSE,165,10.0,10.0,51,0.00,,,0.02,Wunderground v.1.15,2013-04-18 23:45:00,
2013-04-18 19:55:00,52.6,34.5,29.76,SSW,198,11.0,13.0,50,0.00,,,0.02,Wunderground v.1.15,2013-04-18 23:55:00,
2013-04-18 20:05:00,52.4,34.8,29.75,South,182,10.0,12.0,51,0.00,,,0.02,Wunderground v.1.15,2013-04-19 00:05:00,
2013-04-18 20:11:00,52.4,34.8,29.76,South,169,10.0,10.0,51,0.00,,,0.02,Wunderground v.1.15,2013-04-19 00:11:00,
2013-04-18 20:26:00,52.3,34.2,29.75,South,172,9.0,18.0,50,0.00,,,0.02,Wunderground v.1.15,2013-04-19 00:26:00,
2013-04-18 20:35:00,52.4,33.8,29.76,South,180,11.0,18.0,49,0.00,,,0.02,Wunderground v.1.15,2013-04-19 00:35:00,
2013-04-18 20:41:00,52.4,33.8,29.76,South,174,10.0,10.0,49,0.00,,,0.02,Wunderground v.1.15,2013-04-19 00:41:00,
2013-04-18 21:00:00,52.2,34.1,29.77,South,187,9.0,10.0,50,0.00,,,0.02,Wunderground v.1.15,2013-04-19 01:00:00,
2013-04-18 21:05:00,52.1,34.0,29.77,South,171,9.0,11.0,50,0.00,,,0.02,Wunderground v.1.15,2013-04-19 01:05:00,
2013-04-18 21:11:00,51.9,33.8,29.77,South,180,10.0,10.0,50,0.00,,,0.02,Wunderground v.1.15,2013-04-19 01:11:00,
2013-04-18 21:21:00,51.8,33.7,29.76,South,185,9.0,15.0,50,0.00,,,0.02,Wunderground v.1.15,2013-04-19 01:21:00,
2013-04-18 21:35:00,51.8,33.7,29.77,South,184,11.0,11.0,50,0.00,,,0.02,Wunderground v.1.15,2013-04-19 01:35:00,
2013-04-18 21:40:00,51.8,33.2,29.76,South,188,10.0,11.0,49,0.00,,,0.02,Wunderground v.1.15,2013-04-19 01:40:00,
2013-04-18 21:51:00,51.7,33.1,29.76,South,190,9.0,10.0,49,0.00,,,0.02,Wunderground v.1.15,2013-04-19 01:51:00,
2013-04-18 22:00:00,51.8,32.2,29.76,South,178,9.0,9.0,47,0.00,,,0.02,Wunderground v.1.15,2013-04-19 02:00:00,
2013-04-18 22:06:00,51.9,32.8,29.75,South,187,8.0,9.0,48,0.00,,,0.02,Wunderground v.1.15,2013-04-19 02:06:00,
2013-04-18 22:15:00,51.9,31.7,29.75,SW,217,11.0,11.0,46,0.00,,,0.02,Wunderground v.1.15,2013-04-19 02:15:00,
2013-04-18 22:25:00,51.5,31.4,29.74,SSW,207,10.0,10.0,46,0.00,,,0.02,Wunderground v.1.15,2013-04-19 02:25:00,
2013-04-18 22:31:00,51.3,31.7,29.74,SSW,196,9.0,13.0,47,0.00,,,0.02,Wunderground v.1.15,2013-04-19 02:31:00,
2013-04-18 22:40:00,51.2,31.6,29.73,SSW,207,12.0,18.0,47,0.00,,,0.02,Wunderground v.1.15,2013-04-19 02:40:00,
2013-04-18 22:45:00,50.8,31.8,29.73,SSW,197,12.0,12.0,48,0.00,,,0.02,Wunderground v.1.15,2013-04-19 02:45:00,
2013-04-18 22:55:00,50.5,31.5,29.72,SW,233,11.0,11.0,48,0.00,,,0.02,Wunderground v.1.15,2013-04-19 02:55:00,
2013-04-18 23:10:00,50.4,31.4,29.71,SSE,161,11.0,11.0,48,0.00,,,0.02,Wunderground v.1.15,2013-04-19 03:10:00,
2013-04-18 23:15:00,50.4,31.4,29.71,SSW,203,12.0,12.0,48,0.00,,,0.02,Wunderground v.1.15,2013-04-19 03:15:00,
2013-04-18 23:26:00,50.2,31.8,29.71,SSW,196,10.0,12.0,49,0.00,,,0.02,Wunderground v.1.15,2013-04-19 03:26:00,
2013-04-18 23:35:00,50.2,32.3,29.71,SSW,202,10.0,12.0,50,0.00,,,0.02,Wunderground v.1.15,2013-04-19 03:35:00,
2013-04-18 23:46:00,49.9,33.0,29.71,South,185,8.0,8.0,52,0.00,,,0.02,Wunderground v.1.15,2013-04-19 03:46:00,
2013-04-18 23:55:00,49.6,33.6,29.70,SSE,167,7.0,7.0,54,0.00,,,0.02,Wunderground v.1.15,2013-04-19 03:55:00,